Portada
METAR-TAF:

METAR-TAF

Aeropuertos :

Aeropuerto Internacional de Tan Son Nhat

Ciudad Ho Chi Minh, Vietnam

latitud: 10-49N, longitud: 106-40E, altitud: 19 m

Observación

El informe se hizo hace 17 minutos, a las 00:30 UTC
Viento 4 kt del noreste, variando entre norte y este-noreste
Temperatura 25°C
Humedad 61%
Presión 1015 hPa
Visibilidad: 8000 m
Escasas nubes a una altura de 2000 ft

METAR: VVTS 190030Z 04004KT 010V070 8000 FEW020 25/17 Q1015 NOSIG

Hora: 07:47 (00:47 UTC)

Pronóstico

El informe se hizo hace 1 hora y 47 minutos, a las 23:00 UTC
Pronóstico válido del 19 a las 00 UTC al 20 a las 06 UTC
Viento 6 kt del este
Visibilidad 10 km o más
Nubes dispersas a una altura de 1700 ft

TAF: VVTS 182300Z 1900/2006 08006KT 9999 SCT017

Observaciones y pronósticos meteorológicos de más de 4000 aeropuertos (mensajes METAR y TAF).

Los puntos amarillos y rojos representan las estaciones disponibles.

Ponga el ratón en el punto deseado para ver el nombre de la estación.

Haga clic para ver las observaciones y los pronósticos meteorológicos.

Para cambiar el mapa : haga clic en los botones verdes con una cruz de color negro para hacer un zoom, en el botón verde con un guión para alejar o en las flechas verdes para mapas adyacentes.


METAR-TAF: